Abbot, Maine
Current Conditions -  °F | °C
As of 9:35 AM on Saturday 01 Nov 2014 (Local Time) from KWVL Reporting Station
Overcast Overcast  
Wind Chill: 32°   Ceiling: 2300
Heat Index: 39°   Visibility: 10mi
Dew Point: 30°   Wind: 13mph
Humidity: 70%   Direction: 20°NNE
Pressure: 30"   Gusts: 17mph
Location:  44.94°N, 69.7°W
Report Text: KWVL 011335Z 02011G15KT 10SM OVC023 04/M01 A3000 RMK AO1
Loading
Personal Weather Stations






























Interactive Weather Map
Tropical Storm Tracking
New forecast layout! Learn more

10-Day Weather Forecast

Advertisements
Track Severe Weather on mobile